Time;durP1;ratioP1;P1;durP2;ratioP2;P2;SDS_P1;SDS_P2;PMS_P1;PMS_P2;Temp;Humidity;BMP_temperature;BMP_pressure;BME280_temperature;BME280_humidity;BME280_pressure;Samples;Min_cycle;Max_cycle;Signal;HPM_P1;HPM_P2
2022/12/20 03:05:46;;;;;;;26.00;23.63;;;2.40;99.90;;;;;;4926065;29;20495;-79
2022/12/20 03:08:14;;;;;;;26.60;24.20;;;2.40;99.90;;;;;;4925681;29;20860;-79
2022/12/20 03:10:41;;;;;;;28.87;26.23;;;2.40;99.90;;;;;;4922512;29;20451;-80
2022/12/20 03:13:08;;;;;;;28.73;26.07;;;2.40;99.90;;;;;;4919365;29;20590;-79
2022/12/20 03:15:38;;;;;;;28.80;26.13;;;2.40;99.90;;;;;;4928026;29;20978;-79
2022/12/20 03:18:07;;;;;;;30.07;27.33;;;2.40;99.90;;;;;;4921764;29;20453;-79
2022/12/20 03:20:34;;;;;;;28.93;26.13;;;2.40;99.90;;;;;;4925367;29;20473;-79
2022/12/20 03:23:01;;;;;;;30.77;27.57;;;2.40;99.90;;;;;;4923480;29;20309;-77
2022/12/20 03:25:28;;;;;;;28.60;26.00;;;2.40;99.90;;;;;;4924815;29;20213;-77
2022/12/20 03:27:56;;;;;;;27.83;25.27;;;2.40;99.90;;;;;;4927766;29;20702;-76
2022/12/20 03:30:24;;;;;;;27.97;25.37;;;2.40;99.90;;;;;;4923693;29;20963;-77
2022/12/20 03:32:51;;;;;;;28.83;26.07;;;2.40;99.90;;;;;;4930684;29;20215;-76
2022/12/20 03:35:20;;;;;;;28.73;26.07;;;2.40;99.90;;;;;;4926758;29;20483;-77
2022/12/20 03:37:47;;;;;;;29.93;27.17;;;2.40;99.90;;;;;;4927836;29;20538;-77
2022/12/20 03:40:14;;;;;;;32.80;29.60;;;2.40;99.90;;;;;;4928881;29;20215;-77
2022/12/20 03:42:42;;;;;;;30.53;27.57;;;2.40;99.90;;;;;;4927016;29;20496;-76
2022/12/20 03:45:09;;;;;;;29.70;26.60;;;2.40;99.90;;;;;;4929147;29;20462;-77
2022/12/20 03:47:36;;;;;;;30.50;27.40;;;2.40;99.90;;;;;;4925165;29;20471;-76
2022/12/20 03:50:06;;;;;;;29.20;26.47;;;2.40;99.90;;;;;;4930455;29;20214;-76
2022/12/20 03:52:36;;;;;;;30.03;27.20;;;2.40;99.90;;;;;;4916948;29;20220;-77
2022/12/20 03:55:06;;;;;;;29.30;26.60;;;2.40;99.90;;;;;;4915467;29;20452;-78
2022/12/20 03:57:40;;;;;;;29.10;26.37;;;2.40;99.90;;;;;;4927429;29;20255;-79
2022/12/20 04:00:21;;;;;;;27.97;25.43;;;2.40;99.90;;;;;;4931319;29;20255;-76
2022/12/20 04:02:52;;;;;;;28.80;26.07;;;2.40;99.90;;;;;;4924144;29;20531;-77
2022/12/20 04:05:20;;;;;;;28.27;25.67;;;2.40;99.90;;;;;;4932035;29;20651;-78
2022/12/20 04:07:48;;;;;;;26.60;24.17;;;2.50;99.90;;;;;;4928287;29;20476;-78
2022/12/20 04:10:15;;;;;;;26.07;23.40;;;2.50;99.90;;;;;;4922139;29;20452;-78
2022/12/20 04:12:42;;;;;;;27.07;24.67;;;2.50;99.90;;;;;;4926882;29;20248;-79
2022/12/20 04:15:11;;;;;;;25.63;23.27;;;2.60;99.90;;;;;;4927111;29;20207;-79
2022/12/20 04:17:40;;;;;;;26.30;23.83;;;2.70;99.90;;;;;;4917993;29;20464;-76
2022/12/20 04:20:18;;;;;;;23.90;22.00;;;2.70;99.90;;;;;;4922757;29;20456;-83
2022/12/20 04:22:51;;;;;;;25.30;23.03;;;2.80;99.90;;;;;;4932131;29;20227;-78
2022/12/20 04:25:21;;;;;;;23.57;21.67;;;2.80;99.90;;;;;;4936668;29;20826;-79
2022/12/20 04:27:48;;;;;;;25.20;22.93;;;2.90;99.90;;;;;;4931406;29;20250;-79
2022/12/20 04:30:15;;;;;;;26.00;23.53;;;2.90;99.90;;;;;;4922237;29;20235;-81
2022/12/20 04:32:42;;;;;;;27.67;25.00;;;2.90;99.90;;;;;;4924547;29;20220;-79
2022/12/20 04:35:10;;;;;;;26.87;24.30;;;2.90;99.90;;;;;;4928378;29;20228;-81
2022/12/20 04:37:41;;;;;;;29.23;26.27;;;2.90;99.90;;;;;;4927597;29;20200;-81
2022/12/20 04:40:10;;;;;;;28.40;25.47;;;2.80;99.90;;;;;;4926466;29;20687;-81
2022/12/20 04:42:49;;;;;;;27.50;25.00;;;2.80;99.90;;;;;;4928518;29;20199;-80
2022/12/20 04:45:17;;;;;;;28.87;26.07;;;2.80;99.90;;;;;;4936325;29;20201;-80
2022/12/20 04:47:44;;;;;;;28.50;25.80;;;2.70;99.90;;;;;;4936084;29;20558;-80
2022/12/20 04:50:13;;;;;;;28.67;26.07;;;2.70;99.90;;;;;;4922865;29;20460;-80
2022/12/20 04:55:28;;;;;;;26.80;24.37;;;2.80;99.90;;;;;;4928327;29;20196;-81
2022/12/20 04:57:57;;;;;;;26.40;24.07;;;2.80;99.90;;;;;;4922491;29;20467;-78
2022/12/20 05:00:25;;;;;;;26.00;23.90;;;2.90;99.90;;;;;;4927880;29;20454;-76
2022/12/20 05:02:59;;;;;;;26.47;24.07;;;2.90;99.90;;;;;;4929443;29;20891;-76
2022/12/20 05:05:27;;;;;;;23.63;21.73;;;3.00;99.90;;;;;;4909961;29;20200;-78
2022/12/20 05:07:57;;;;;;;23.63;21.77;;;3.10;99.90;;;;;;4926470;29;20478;-77
2022/12/20 05:10:25;;;;;;;23.23;21.27;;;3.10;99.90;;;;;;4926570;29;20196;-78
2022/12/20 05:12:55;;;;;;;22.87;21.07;;;3.10;99.90;;;;;;4931819;29;20690;-79
2022/12/20 05:15:33;;;;;;;22.30;20.47;;;3.20;99.90;;;;;;4915018;29;20204;-78
2022/12/20 05:18:00;;;;;;;23.73;21.73;;;3.20;99.90;;;;;;4930532;29;20200;-78
2022/12/20 05:20:34;;;;;;;23.97;21.87;;;3.20;99.90;;;;;;4921285;29;20207;-77
2022/12/20 05:28:37;;;;;;;23.47;21.47;;;3.30;99.90;;;;;;4947462;29;20230;-78
2022/12/20 05:31:05;;;;;;;23.77;21.93;;;3.30;99.90;;;;;;4937119;29;20231;-78
2022/12/20 05:33:35;;;;;;;23.00;21.10;;;3.30;99.90;;;;;;4934624;29;20191;-79
2022/12/20 05:36:03;;;;;;;23.80;21.80;;;3.30;99.90;;;;;;4935241;29;20203;-79
2022/12/20 05:38:30;;;;;;;24.27;22.20;;;3.30;99.90;;;;;;4930139;29;20648;-77
2022/12/20 05:40:58;;;;;;;23.70;21.67;;;3.30;99.90;;;;;;4916205;29;20224;-78
2022/12/20 05:43:26;;;;;;;23.00;21.20;;;3.30;99.90;;;;;;4918132;29;20204;-79
2022/12/20 05:45:54;;;;;;;23.70;21.80;;;3.30;99.90;;;;;;4916415;29;20294;-78
2022/12/20 05:48:30;;;;;;;22.90;21.03;;;3.40;99.90;;;;;;4914188;29;20833;-77
2022/12/20 05:50:57;;;;;;;23.80;21.87;;;3.30;99.90;;;;;;4930211;29;20291;-77
2022/12/20 05:53:32;;;;;;;23.30;21.40;;;3.30;99.90;;;;;;4925466;29;20191;-78
2022/12/20 05:56:03;;;;;;;24.23;22.13;;;3.30;99.90;;;;;;4931053;29;20209;-77
2022/12/20 05:58:34;;;;;;;23.03;21.27;;;3.30;99.90;;;;;;4917262;29;20200;-78
2022/12/20 06:01:07;;;;;;;23.07;21.27;;;3.30;99.90;;;;;;4921921;29;20601;-79
2022/12/20 06:03:38;;;;;;;23.53;21.63;;;3.30;99.90;;;;;;4915796;29;20294;-79
2022/12/20 06:06:09;;;;;;;23.10;21.20;;;3.30;99.90;;;;;;4933622;29;20204;-78
2022/12/20 06:08:36;;;;;;;23.27;21.37;;;3.30;99.90;;;;;;4923277;29;20227;-78
2022/12/20 06:11:07;;;;;;;22.87;21.07;;;3.30;99.90;;;;;;4915312;29;20311;-79
2022/12/20 06:13:44;;;;;;;22.70;20.80;;;3.30;99.90;;;;;;4924917;29;20224;-77
2022/12/20 06:16:12;;;;;;;22.50;20.60;;;3.30;99.90;;;;;;4928647;29;20590;-78
2022/12/20 06:18:39;;;;;;;23.30;21.37;;;3.30;99.90;;;;;;4925008;29;20211;-79
2022/12/20 06:21:06;;;;;;;22.80;20.90;;;3.30;99.90;;;;;;4919210;29;20759;-79
2022/12/20 06:23:34;;;;;;;21.73;20.13;;;3.30;99.90;;;;;;4923294;29;20215;-78
2022/12/20 06:26:08;;;;;;;21.47;19.77;;;3.30;99.90;;;;;;4921387;29;20296;-78
2022/12/20 06:28:41;;;;;;;22.30;20.50;;;3.30;99.90;;;;;;4924023;29;20231;-79
2022/12/20 06:31:10;;;;;;;22.33;20.43;;;3.30;99.90;;;;;;4930374;29;20310;-78
2022/12/20 06:33:44;;;;;;;21.43;19.73;;;3.40;99.90;;;;;;4927644;29;20205;-79
2022/12/20 06:36:13;;;;;;;22.07;20.27;;;3.40;99.90;;;;;;4924295;29;20210;-82
2022/12/20 06:38:40;;;;;;;22.50;20.67;;;3.40;99.90;;;;;;4930034;29;20577;-78
2022/12/20 06:41:07;;;;;;;21.93;20.13;;;3.50;99.90;;;;;;4927781;29;20704;-77
2022/12/20 06:43:34;;;;;;;22.67;20.80;;;3.50;99.90;;;;;;4934128;29;20287;-78
2022/12/20 06:46:01;;;;;;;22.73;20.83;;;3.50;99.90;;;;;;4923174;29;20742;-78
2022/12/20 06:48:28;;;;;;;22.97;21.17;;;3.50;99.90;;;;;;4919044;29;20238;-79
2022/12/20 06:50:56;;;;;;;21.83;20.13;;;3.50;99.90;;;;;;4919835;29;20869;-78
2022/12/20 06:53:24;;;;;;;22.27;20.47;;;3.50;99.90;;;;;;4931217;29;20203;-77
2022/12/20 06:55:51;;;;;;;22.77;20.87;;;3.50;99.90;;;;;;4932628;29;20215;-78
2022/12/20 06:58:19;;;;;;;21.07;19.47;;;3.60;99.90;;;;;;4929824;29;20200;-79
2022/12/20 07:00:48;;;;;;;21.93;20.07;;;3.60;99.90;;;;;;4930517;29;20257;-79
2022/12/20 07:03:15;;;;;;;21.30;19.60;;;3.60;99.90;;;;;;4931636;29;20266;-80
2022/12/20 07:05:42;;;;;;;20.87;19.17;;;3.60;99.90;;;;;;4930319;29;20198;-78
2022/12/20 07:08:10;;;;;;;20.90;19.20;;;3.60;99.90;;;;;;4929541;29;20219;-78
2022/12/20 07:10:38;;;;;;;21.80;19.63;;;3.60;99.90;;;;;;4921985;29;20195;-77
2022/12/20 07:13:04;;;;;;;20.50;19.00;;;3.60;99.90;;;;;;4917138;29;20215;-78
2022/12/20 07:15:31;;;;;;;21.27;19.57;;;3.60;99.90;;;;;;4927607;29;20226;-79
2022/12/20 07:17:58;;;;;;;21.37;19.57;;;3.60;99.90;;;;;;4930145;29;20203;-79
2022/12/20 07:20:25;;;;;;;20.30;18.60;;;3.70;99.90;;;;;;4929454;29;20203;-78
2022/12/20 07:22:52;;;;;;;20.23;18.80;;;3.70;99.90;;;;;;4927516;29;20218;-78
2022/12/20 07:25:20;;;;;;;21.43;19.83;;;3.70;99.90;;;;;;4928282;29;20288;-79
2022/12/20 07:27:48;;;;;;;21.10;19.33;;;3.80;99.90;;;;;;4929819;29;20278;-79
2022/12/20 07:30:15;;;;;;;21.63;19.93;;;3.80;99.90;;;;;;4927129;29;20203;-80
2022/12/20 07:32:42;;;;;;;20.77;19.27;;;3.90;99.90;;;;;;4929175;29;20237;-79
2022/12/20 07:35:10;;;;;;;20.60;19.10;;;3.80;99.90;;;;;;4929233;29;20207;-79
2022/12/20 07:37:37;;;;;;;22.13;20.13;;;3.80;99.90;;;;;;4929945;29;20196;-79
2022/12/20 07:40:05;;;;;;;21.70;19.90;;;3.80;99.90;;;;;;4929372;29;20206;-82
2022/12/20 07:42:34;;;;;;;20.90;19.27;;;3.90;99.90;;;;;;4910358;29;20217;-79
2022/12/20 07:45:01;;;;;;;21.50;19.87;;;3.90;99.90;;;;;;4920161;29;20203;-79
2022/12/20 07:47:29;;;;;;;20.63;19.07;;;3.90;99.90;;;;;;4926196;29;20208;-79
2022/12/20 07:49:55;;;;;;;20.53;18.80;;;3.90;99.90;;;;;;4911425;29;20208;-80
2022/12/20 07:52:25;;;;;;;20.10;18.63;;;3.90;99.90;;;;;;4902800;29;20236;-82
2022/12/20 07:54:56;;;;;;;20.73;19.10;;;4.00;99.90;;;;;;4914477;29;20234;-83
2022/12/20 07:57:29;;;;;;;20.10;18.40;;;4.10;99.90;;;;;;4930246;29;20204;-82
2022/12/20 08:00:00;;;;;;;21.00;19.17;;;4.10;99.90;;;;;;4925459;29;20230;-82
2022/12/20 08:02:32;;;;;;;19.63;18.17;;;4.20;99.90;;;;;;4925238;29;20219;-81
2022/12/20 08:05:00;;;;;;;19.60;18.20;;;4.20;99.90;;;;;;4925495;29;20207;-82
2022/12/20 08:07:28;;;;;;;20.77;18.97;;;4.30;99.90;;;;;;4925507;29;20199;-82
2022/12/20 08:09:55;;;;;;;20.33;18.73;;;4.30;99.90;;;;;;4925459;29;20199;-82
2022/12/20 08:12:23;;;;;;;20.30;18.70;;;4.40;99.90;;;;;;4925505;29;20279;-83
2022/12/20 08:14:54;;;;;;;20.93;19.27;;;4.30;99.90;;;;;;4930712;29;20207;-79
2022/12/20 08:17:23;;;;;;;19.83;18.30;;;4.40;99.90;;;;;;4928810;29;20620;-81
2022/12/20 08:19:50;;;;;;;21.47;19.77;;;4.30;99.90;;;;;;4932430;29;20203;-79
2022/12/20 08:22:18;;;;;;;20.93;19.40;;;4.30;99.90;;;;;;4930286;29;20224;-80
2022/12/20 08:24:45;;;;;;;20.70;18.90;;;4.30;99.90;;;;;;4928042;29;20657;-80
2022/12/20 08:27:11;;;;;;;20.63;19.03;;;4.30;99.90;;;;;;4932557;29;20672;-81
2022/12/20 08:29:38;;;;;;;21.90;20.10;;;4.30;99.90;;;;;;4925441;29;20215;-80
2022/12/20 08:32:05;;;;;;;21.60;19.90;;;4.30;99.90;;;;;;4932277;29;20317;-83
2022/12/20 08:34:34;;;;;;;22.13;20.13;;;4.30;99.90;;;;;;4926041;29;20196;-78
2022/12/20 08:37:00;;;;;;;21.40;19.80;;;4.40;99.90;;;;;;4933270;29;20206;-78
2022/12/20 08:39:27;;;;;;;21.20;19.50;;;4.40;99.90;;;;;;4920489;29;20184;-79
2022/12/20 08:41:54;;;;;;;20.83;19.13;;;4.50;99.90;;;;;;4926174;29;20227;-79
2022/12/20 08:44:21;;;;;;;22.67;20.73;;;4.50;99.90;;;;;;4918746;29;20563;-79
2022/12/20 08:46:48;;;;;;;21.27;19.53;;;4.50;99.90;;;;;;4899334;29;20674;-79
2022/12/20 08:49:15;;;;;;;21.80;20.10;;;4.50;99.90;;;;;;4903626;29;20248;-79
2022/12/20 08:51:43;;;;;;;22.43;20.63;;;4.60;99.90;;;;;;4902475;29;20224;-78
2022/12/20 08:54:10;;;;;;;23.43;21.13;;;4.60;99.90;;;;;;4905643;29;20213;-79
2022/12/20 08:56:37;;;;;;;22.80;20.90;;;4.60;99.90;;;;;;4916578;29;20206;-78
2022/12/20 08:59:04;;;;;;;23.50;21.47;;;4.60;99.90;;;;;;4924657;29;20657;-79
2022/12/20 09:01:32;;;;;;;21.90;20.13;;;4.60;99.90;;;;;;4930670;29;20255;-78
2022/12/20 09:03:59;;;;;;;21.87;20.07;;;4.70;99.90;;;;;;4925430;29;20587;-78
2022/12/20 09:06:26;;;;;;;21.73;19.90;;;4.70;99.90;;;;;;4932260;29;20204;-81
2022/12/20 09:08:55;;;;;;;21.07;19.27;;;4.80;99.90;;;;;;4924771;29;20640;-78
2022/12/20 09:11:23;;;;;;;21.57;19.87;;;4.80;99.90;;;;;;4927595;29;20250;-78
2022/12/20 09:13:52;;;;;;;23.23;21.20;;;4.80;99.90;;;;;;4928834;29;20263;-78
2022/12/20 09:16:21;;;;;;;20.80;19.20;;;4.90;99.90;;;;;;4915075;29;20692;-78
2022/12/20 09:18:49;;;;;;;21.43;19.47;;;4.90;99.90;;;;;;4923526;29;20696;-78
2022/12/20 09:21:16;;;;;;;20.67;19.03;;;5.00;99.90;;;;;;4926401;29;20692;-77
2022/12/20 09:23:43;;;;;;;19.87;18.30;;;5.10;99.90;;;;;;4928554;29;20214;-79
2022/12/20 09:26:13;;;;;;;19.63;18.13;;;5.10;99.90;;;;;;4926031;29;20212;-78
2022/12/20 09:28:40;;;;;;;21.67;19.90;;;5.20;99.90;;;;;;4924075;29;20208;-80
2022/12/20 09:31:10;;;;;;;21.47;19.70;;;5.20;99.90;;;;;;4926817;29;20234;-79
2022/12/20 09:33:37;;;;;;;21.13;19.43;;;5.20;99.90;;;;;;4917622;29;20207;-79
2022/12/20 09:36:06;;;;;;;22.17;20.37;;;5.30;99.90;;;;;;4920312;29;20201;-79
2022/12/20 09:38:33;;;;;;;20.93;19.23;;;5.40;99.90;;;;;;4923797;29;20254;-79
2022/12/20 09:41:03;;;;;;;19.57;18.17;;;5.50;99.90;;;;;;4924914;29;20296;-80
2022/12/20 09:43:32;;;;;;;20.97;19.27;;;5.60;99.90;;;;;;4922450;29;20264;-78
2022/12/20 09:46:01;;;;;;;20.80;19.10;;;5.70;99.90;;;;;;4930908;29;20228;-80
2022/12/20 09:48:32;;;;;;;20.13;18.63;;;5.90;99.90;;;;;;4922086;29;20226;-80
2022/12/20 09:51:07;;;;;;;20.77;19.03;;;6.00;99.90;;;;;;4930548;29;20291;-79
2022/12/20 09:53:46;;;;;;;20.77;19.20;;;6.20;99.90;;;;;;4920930;29;20208;-81
2022/12/20 09:56:18;;;;;;;19.43;18.03;;;6.30;99.90;;;;;;4932033;29;20251;-79
2022/12/20 09:58:59;;;;;;;20.00;18.50;;;6.40;99.90;;;;;;4924540;29;20677;-79
2022/12/20 10:01:28;;;;;;;20.40;18.60;;;6.50;99.90;;;;;;4932174;29;20230;-79
2022/12/20 10:03:57;;;;;;;19.60;18.10;;;6.60;99.90;;;;;;4923979;29;20255;-79
2022/12/20 10:06:35;;;;;;;19.47;18.00;;;6.60;99.90;;;;;;4936032;29;20214;-80
2022/12/20 10:09:04;;;;;;;19.97;18.53;;;6.60;99.90;;;;;;4924824;29;20280;-79
2022/12/20 10:11:49;;;;;;;18.83;17.53;;;6.60;99.90;;;;;;4920645;29;20281;-80
2022/12/20 10:14:31;;;;;;;18.63;17.23;;;6.80;99.90;;;;;;4925410;29;20742;-82
2022/12/20 10:17:04;;;;;;;19.27;17.90;;;6.80;99.90;;;;;;4927718;29;20671;-80
2022/12/20 10:19:55;;;;;;;19.43;17.93;;;6.90;99.90;;;;;;4917445;29;20283;-80
2022/12/20 10:22:26;;;;;;;18.47;17.07;;;6.90;99.90;;;;;;4919049;29;20274;-80
2022/12/20 10:24:58;;;;;;;18.43;16.93;;;6.80;99.90;;;;;;4927497;29;20680;-80
2022/12/20 10:27:25;;;;;;;18.90;17.50;;;6.80;99.90;;;;;;4935919;29;20675;-78
2022/12/20 10:29:54;;;;;;;18.83;17.33;;;6.70;99.90;;;;;;4920514;29;20770;-79
2022/12/20 10:32:23;;;;;;;19.70;18.20;;;6.60;99.90;;;;;;4921150;29;20707;-79
2022/12/20 10:34:55;;;;;;;20.43;18.73;;;6.40;99.90;;;;;;4930094;29;20627;-79
2022/12/20 10:37:22;;;;;;;19.97;18.27;;;6.30;99.90;;;;;;4925174;29;20269;-79
2022/12/20 10:39:50;;;;;;;21.03;19.23;;;6.20;99.90;;;;;;4922907;29;20254;-80
2022/12/20 10:42:30;;;;;;;19.90;18.30;;;6.20;99.90;;;;;;4926685;29;20226;-79
2022/12/20 10:44:59;;;;;;;19.70;18.10;;;6.10;99.90;;;;;;4925597;29;20203;-78
2022/12/20 10:47:38;;;;;;;18.30;17.00;;;6.10;99.90;;;;;;4931236;29;20197;-78
2022/12/20 10:50:13;;;;;;;19.30;17.83;;;6.00;99.90;;;;;;4923553;29;20222;-80
2022/12/20 10:52:40;;;;;;;18.33;16.93;;;6.00;99.90;;;;;;4921671;29;20701;-80
2022/12/20 10:55:35;;;;;;;19.70;18.10;;;5.90;99.90;;;;;;4928025;29;20203;-79
2022/12/20 10:58:05;;;;;;;18.90;17.47;;;5.90;99.90;;;;;;4924669;29;20285;-79
2022/12/20 11:00:34;;;;;;;17.93;16.63;;;5.90;99.90;;;;;;4927982;29;20598;-78
2022/12/20 11:03:11;;;;;;;18.43;17.03;;;5.90;99.90;;;;;;4928484;29;20295;-80
2022/12/20 11:05:38;;;;;;;18.37;16.97;;;5.90;99.90;;;;;;4918977;29;20228;-79
2022/12/20 11:08:13;;;;;;;19.03;17.63;;;5.90;99.90;;;;;;4921406;29;20228;-79
2022/12/20 11:10:40;;;;;;;18.70;17.20;;;6.00;99.90;;;;;;4925200;29;20634;-79
2022/12/20 11:13:21;;;;;;;19.13;17.67;;;6.00;99.90;;;;;;4927266;29;20550;-77
2022/12/20 11:15:50;;;;;;;17.97;16.60;;;6.00;99.90;;;;;;4926081;29;20269;-79
2022/12/20 11:18:27;;;;;;;17.70;16.30;;;6.00;99.90;;;;;;4926404;29;20201;-79
2022/12/20 11:21:03;;;;;;;17.87;16.57;;;6.00;99.90;;;;;;4925382;29;20789;-79
2022/12/20 11:23:37;;;;;;;18.17;16.83;;;6.10;99.90;;;;;;4925210;29;20205;-79
2022/12/20 11:26:18;;;;;;;17.67;16.37;;;6.10;99.90;;;;;;4924333;29;20213;-80
2022/12/20 11:28:59;;;;;;;18.07;16.57;;;6.20;99.90;;;;;;4927064;29;20208;-78
2022/12/20 11:31:40;;;;;;;18.13;16.67;;;6.20;99.90;;;;;;4919259;29;20286;-81
2022/12/20 11:34:19;;;;;;;17.70;16.30;;;6.30;99.90;;;;;;4925224;29;20206;-82
2022/12/20 11:37:16;;;;;;;17.07;15.77;;;6.40;99.90;;;;;;4924130;29;20213;-83
2022/12/20 11:40:04;;;;;;;17.10;15.90;;;6.50;99.90;;;;;;4923836;29;20835;-82
2022/12/20 11:42:42;;;;;;;17.40;16.10;;;6.60;99.90;;;;;;4918120;29;20232;-84
2022/12/20 11:45:19;;;;;;;17.20;16.00;;;6.60;99.90;;;;;;4925536;29;20270;-82
2022/12/20 11:48:05;;;;;;;18.17;16.87;;;6.70;99.90;;;;;;4929217;29;20260;-81
2022/12/20 11:50:45;;;;;;;17.53;16.23;;;6.70;99.90;;;;;;4920060;29;20270;-81
2022/12/20 11:53:20;;;;;;;17.53;16.33;;;6.80;99.90;;;;;;4934311;29;20205;-79
2022/12/20 11:55:51;;;;;;;17.70;16.33;;;6.90;99.90;;;;;;4913579;29;20218;-78
2022/12/20 11:58:23;;;;;;;18.30;16.93;;;6.90;99.90;;;;;;4920503;29;20270;-79
2022/12/20 12:00:55;;;;;;;17.37;16.03;;;7.00;99.90;;;;;;4932958;29;20223;-79
2022/12/20 12:03:30;;;;;;;18.07;16.77;;;7.10;99.90;;;;;;4899522;29;20219;-78
2022/12/20 12:06:02;;;;;;;17.73;16.33;;;7.10;99.90;;;;;;4920854;29;20254;-79
2022/12/20 12:08:36;;;;;;;18.07;16.77;;;7.10;99.90;;;;;;4927396;29;20369;-78
2022/12/20 12:11:11;;;;;;;19.33;17.80;;;7.00;99.90;;;;;;4925338;29;20237;-80
2022/12/20 12:13:40;;;;;;;17.70;16.50;;;6.90;99.90;;;;;;4918902;29;20564;-80
2022/12/20 12:16:11;;;;;;;17.50;16.23;;;6.80;99.90;;;;;;4924029;29;20199;-78
2022/12/20 12:18:41;;;;;;;17.93;16.60;;;6.80;99.90;;;;;;4912068;29;20259;-78
2022/12/20 12:21:13;;;;;;;18.17;16.77;;;6.80;99.90;;;;;;4916734;29;20219;-78
2022/12/20 12:23:49;;;;;;;18.13;16.80;;;6.70;99.90;;;;;;4925554;29;20211;-79
2022/12/20 12:26:21;;;;;;;17.40;16.20;;;6.80;99.90;;;;;;4927887;29;20747;-80
2022/12/20 12:28:53;;;;;;;18.17;16.87;;;6.90;99.90;;;;;;4918743;29;20280;-79
2022/12/20 12:31:25;;;;;;;17.67;16.37;;;7.10;99.90;;;;;;4913241;29;20231;-78
2022/12/20 12:34:04;;;;;;;17.73;16.43;;;7.30;99.90;;;;;;4923297;29;20287;-80
2022/12/20 12:37:08;;;;;;;17.57;16.27;;;7.50;99.90;;;;;;4920135;29;20203;-79
2022/12/20 12:39:58;;;;;;;17.33;16.13;;;7.60;99.90;;;;;;4898169;29;20208;-80
2022/12/20 12:42:59;;;;;;;17.07;15.87;;;7.70;99.90;;;;;;4919263;29;20219;-79
2022/12/20 12:45:29;;;;;;;17.20;15.90;;;7.70;99.90;;;;;;4916247;29;20203;-80
2022/12/20 12:48:01;;;;;;;17.73;16.43;;;7.70;99.90;;;;;;4919344;29;20748;-79
2022/12/20 12:50:32;;;;;;;17.17;15.97;;;7.70;99.90;;;;;;4911211;29;20224;-78
2022/12/20 12:53:07;;;;;;;17.03;15.73;;;7.70;99.90;;;;;;4908499;29;20220;-78
2022/12/20 12:55:41;;;;;;;17.20;15.93;;;7.60;99.90;;;;;;4927884;29;20205;-78
2022/12/20 12:58:30;;;;;;;17.03;15.87;;;7.60;99.90;;;;;;4921589;29;20258;-79
2022/12/20 13:00:59;;;;;;;17.30;16.03;;;7.60;99.90;;;;;;4927915;29;20238;-79
2022/12/20 13:03:41;;;;;;;16.57;15.37;;;7.50;99.90;;;;;;4922631;29;20264;-78
2022/12/20 13:06:53;;;;;;;17.40;15.90;;;7.50;99.90;;;;;;4921959;29;20204;-78
2022/12/20 13:09:35;;;;;;;16.80;15.57;;;7.50;99.90;;;;;;4920166;29;20457;-78
2022/12/20 13:12:49;;;;;;;17.70;16.30;;;7.50;99.90;;;;;;4915879;29;20724;-79
2022/12/20 13:16:02;;;;;;;17.53;16.33;;;7.40;99.90;;;;;;4909184;29;20298;-78
2022/12/20 13:18:29;;;;;;;18.03;16.73;;;7.30;99.90;;;;;;4917090;29;20211;-80
2022/12/20 13:21:31;;;;;;;18.87;17.37;;;7.10;99.90;;;;;;4917750;29;20246;-79
2022/12/20 13:24:39;;;;;;;17.63;16.40;;;7.10;99.90;;;;;;4906594;29;20229;-79
2022/12/20 13:27:37;;;;;;;19.47;17.97;;;7.10;99.90;;;;;;4919937;29;20252;-79
2022/12/20 13:30:26;;;;;;;19.83;18.20;;;7.10;99.90;;;;;;4872627;29;20610;-78
2022/12/20 13:33:13;;;;;;;20.17;18.37;;;7.00;99.90;;;;;;4922037;29;20238;-79
2022/12/20 13:36:01;;;;;;;19.50;17.90;;;7.00;99.90;;;;;;4918573;29;20672;-79
2022/12/20 13:38:53;;;;;;;20.50;18.80;;;7.00;99.90;;;;;;4923866;29;20198;-78
2022/12/20 13:41:43;;;;;;;19.73;18.17;;;7.00;99.90;;;;;;4920938;29;20219;-79
2022/12/20 13:44:34;;;;;;;19.53;17.87;;;6.90;99.90;;;;;;4922627;29;20207;-79
2022/12/20 13:47:06;;;;;;;18.27;16.97;;;6.90;99.90;;;;;;4916110;29;20265;-80
2022/12/20 13:49:38;;;;;;;18.67;17.33;;;6.90;99.90;;;;;;4915497;29;20730;-79
2022/12/20 13:52:17;;;;;;;19.23;17.63;;;6.90;99.90;;;;;;4910871;29;20233;-79
2022/12/20 13:54:47;;;;;;;19.30;17.80;;;6.90;99.90;;;;;;4911351;29;20325;-78
2022/12/20 13:57:16;;;;;;;17.33;16.03;;;6.80;99.90;;;;;;4914986;29;20196;-79
2022/12/20 13:59:48;;;;;;;18.57;16.97;;;6.80;99.90;;;;;;4917122;29;20266;-78
2022/12/20 14:02:20;;;;;;;17.93;16.57;;;6.80;99.90;;;;;;4913388;29;20279;-78
2022/12/20 14:04:55;;;;;;;17.63;16.13;;;6.90;99.90;;;;;;4916033;29;20204;-78
2022/12/20 14:07:23;;;;;;;19.20;17.80;;;6.90;99.90;;;;;;4913159;29;20209;-78
2022/12/20 14:09:57;;;;;;;18.40;17.10;;;7.00;99.90;;;;;;4934204;29;20666;-80
2022/12/20 14:12:23;;;;;;;18.30;16.90;;;7.00;99.90;;;;;;4928744;29;20229;-79
2022/12/20 14:14:52;;;;;;;17.67;16.17;;;7.10;99.90;;;;;;4928485;29;20218;-80
2022/12/20 14:17:24;;;;;;;18.27;16.67;;;7.20;99.90;;;;;;4925710;29;20226;-80
2022/12/20 14:20:06;;;;;;;18.43;17.00;;;7.30;99.90;;;;;;4928278;29;20262;-80
2022/12/20 14:22:34;;;;;;;17.97;16.63;;;7.40;99.90;;;;;;4929235;29;20219;-80
2022/12/20 14:25:04;;;;;;;17.57;16.37;;;7.50;99.90;;;;;;4929925;29;20292;-80
2022/12/20 14:27:36;;;;;;;18.77;17.27;;;7.50;99.90;;;;;;4920488;29;20199;-86
2022/12/20 14:30:05;;;;;;;17.67;16.43;;;7.50;99.90;;;;;;4927581;29;20223;-80
2022/12/20 14:32:32;;;;;;;18.97;17.47;;;7.40;99.90;;;;;;4927783;29;20230;-83
2022/12/20 14:34:59;;;;;;;18.37;17.07;;;7.40;99.90;;;;;;4933474;29;20281;-84
2022/12/20 14:37:30;;;;;;;19.03;17.57;;;7.30;99.90;;;;;;4926630;29;20207;-80
2022/12/20 14:40:01;;;;;;;18.70;17.30;;;7.20;99.90;;;;;;4927540;29;20198;-80
2022/12/20 14:42:33;;;;;;;18.37;16.97;;;7.10;99.90;;;;;;4916131;29;20222;-79
2022/12/20 14:45:07;;;;;;;19.50;17.93;;;6.90;99.90;;;;;;4930632;29;20259;-79
2022/12/20 14:47:34;;;;;;;19.83;18.27;;;6.70;99.90;;;;;;4918749;29;20674;-79
2022/12/20 14:50:04;;;;;;;19.33;17.73;;;6.60;99.90;;;;;;4928665;29;20240;-78
2022/12/20 14:52:36;;;;;;;19.37;17.87;;;6.50;99.90;;;;;;4916575;29;20222;-82
2022/12/20 14:55:11;;;;;;;20.93;19.23;;;6.40;99.90;;;;;;4928531;29;20211;-82
2022/12/20 14:57:42;;;;;;;20.03;18.37;;;6.30;99.90;;;;;;4929283;29;20621;-85
2022/12/20 15:00:15;;;;;;;20.20;18.50;;;6.30;99.90;;;;;;4920058;29;20201;-84
2022/12/20 15:02:46;;;;;;;20.33;18.63;;;6.30;99.90;;;;;;4923506;29;20239;-85
2022/12/20 15:05:37;;;;;;;21.97;20.13;;;6.20;99.90;;;;;;4922035;29;20679;-84
2022/12/20 15:08:12;;;;;;;20.60;19.00;;;6.20;99.90;;;;;;4932550;29;20279;-85
2022/12/20 15:10:41;;;;;;;21.20;19.40;;;6.10;99.90;;;;;;4924413;29;20221;-85
2022/12/20 15:13:13;;;;;;;19.77;18.17;;;6.10;99.90;;;;;;4929692;29;20212;-83
2022/12/20 15:15:42;;;;;;;20.53;18.90;;;6.10;99.90;;;;;;4928323;29;20299;-79
2022/12/20 15:18:12;;;;;;;21.60;19.57;;;6.00;99.90;;;;;;4929230;29;20197;-80
2022/12/20 15:20:40;;;;;;;20.53;18.87;;;6.00;99.90;;;;;;4921605;29;20325;-78
2022/12/20 15:23:15;;;;;;;21.63;19.83;;;5.90;99.90;;;;;;4921642;29;20667;-78
2022/12/20 15:25:42;;;;;;;20.97;19.33;;;5.90;99.90;;;;;;4926673;29;20205;-83
2022/12/20 15:28:18;;;;;;;19.97;18.47;;;6.00;99.90;;;;;;4930877;29;20197;-79
2022/12/20 15:30:48;;;;;;;20.67;18.97;;;5.90;99.90;;;;;;4927572;29;20232;-79
2022/12/20 15:33:17;;;;;;;21.10;19.40;;;5.90;99.90;;;;;;4930400;29;20626;-79
2022/12/20 15:35:44;;;;;;;21.00;19.33;;;5.90;99.90;;;;;;4936333;29;20290;-79
2022/12/20 15:38:16;;;;;;;20.07;18.57;;;5.90;99.90;;;;;;4931513;29;20209;-79
2022/12/20 15:40:44;;;;;;;21.43;19.73;;;5.80;99.90;;;;;;4932623;29;20572;-79
2022/12/20 15:43:16;;;;;;;20.97;19.37;;;5.80;99.90;;;;;;4929817;29;20588;-79
2022/12/20 15:45:46;;;;;;;21.03;19.50;;;5.70;99.90;;;;;;4932542;29;20674;-80
2022/12/20 15:48:16;;;;;;;21.50;19.60;;;5.70;99.90;;;;;;4930313;29;20221;-79
2022/12/20 15:50:48;;;;;;;20.27;18.77;;;5.60;99.90;;;;;;4931420;29;20713;-80
2022/12/20 15:53:18;;;;;;;20.03;18.43;;;5.60;99.90;;;;;;4930321;29;20737;-78
2022/12/20 15:55:45;;;;;;;20.83;19.03;;;5.60;99.90;;;;;;4933603;29;20270;-79
2022/12/20 15:58:12;;;;;;;20.00;18.57;;;5.60;99.90;;;;;;4927689;29;20359;-78
2022/12/20 16:00:41;;;;;;;20.07;18.57;;;5.60;99.90;;;;;;4927921;29;20226;-78
2022/12/20 16:03:15;;;;;;;18.87;17.47;;;5.60;99.90;;;;;;4933866;29;20256;-79
2022/12/20 16:05:42;;;;;;;19.93;18.30;;;5.60;99.90;;;;;;4930548;29;20346;-79
2022/12/20 16:08:09;;;;;;;20.40;18.80;;;5.60;99.90;;;;;;4934179;29;20276;-80
2022/12/20 16:10:36;;;;;;;20.27;18.67;;;5.60;99.90;;;;;;4927202;29;20285;-79
2022/12/20 16:13:03;;;;;;;21.00;19.20;;;5.60;99.90;;;;;;4934905;29;20209;-78